Time;durP1;ratioP1;P1;durP2;ratioP2;P2;SDS_P1;SDS_P2;PMS_P1;PMS_P2;Temp;Humidity;BMP_temperature;BMP_pressure;BME280_temperature;BME280_humidity;BME280_pressure;Samples;Min_cycle;Max_cycle;Signal;HPM_P1;HPM_P2
2023/08/03 00:00:50;;;;;;;;;;;;;;;;;;6307929;28;19924;-60
2023/08/03 00:04:04;;;;;;;;;;;;;;;;;;6303934;28;22157;-59
2023/08/03 00:07:04;;;;;;;;;;;;;;;;;;6304715;28;19927;-61
2023/08/03 00:10:05;;;;;;;;;;;;;;;;;;6304709;28;19927;-61
2023/08/03 00:13:06;;;;;;;;;;;;;;;;;;6304169;28;19928;-61
2023/08/03 00:16:06;;;;;;;;;;;;;;;;;;6306764;28;20144;-61
2023/08/03 00:19:07;;;;;;;;;;;;;;;;;;6308856;28;19928;-61
2023/08/03 00:22:08;;;;;;;;;;;;;;;;;;6304014;28;20001;-61
2023/08/03 00:25:08;;;;;;;;;;;;;;;;;;6302219;28;21180;-60
2023/08/03 00:28:09;;;;;;;;;;;;;;;;;;6298871;28;19931;-60
2023/08/03 00:31:09;;;;;;;;;;;;;;;;;;6308586;28;19930;-60
2023/08/03 00:34:10;;;;;;;;;;;;;;;;;;6295395;28;19928;-61
2023/08/03 00:37:11;;;;;;;;;;;;;;;;;;6297039;28;20454;-60
2023/08/03 00:40:11;;;;;;;;;;;;;;;;;;6297774;28;19947;-60
2023/08/03 00:43:12;;;;;;;;;;;;;;;;;;6297675;28;20390;-60
2023/08/03 00:46:12;;;;;;;;;;;;;;;;;;6296928;28;20342;-60
2023/08/03 00:49:13;;;;;;;;;;;;;;;;;;6304874;28;21406;-61
2023/08/03 00:52:13;;;;;;;;;;;;;;;;;;6299533;28;19959;-60
2023/08/03 00:55:14;;;;;;;;;;;;;;;;;;6294714;28;20290;-61
2023/08/03 00:58:15;;;;;;;;;;;;;;;;;;6299425;28;20420;-61
2023/08/03 01:01:16;;;;;;;;;;;;;;;;;;6295231;28;19920;-60
2023/08/03 01:04:16;;;;;;;;;;;;;;;;;;6298028;28;19928;-60
2023/08/03 01:07:17;;;;;;;;;;;;;;;;;;6295756;28;19924;-60
2023/08/03 01:10:17;;;;;;;;;;;;;;;;;;6294367;28;20367;-61
2023/08/03 01:13:19;;;;;;;;;;;;;;;;;;6291922;28;20567;-60
2023/08/03 01:16:20;;;;;;;;;;;;;;;;;;6302516;28;20338;-59
2023/08/03 01:19:22;;;;;;;;;;;;;;;;;;6301668;28;19993;-60
2023/08/03 01:22:22;;;;;;;;;;;;;;;;;;6297006;28;19950;-60
2023/08/03 01:25:23;;;;;;;;;;;;;;;;;;6295540;28;20335;-59
2023/08/03 01:28:23;;;;;;;;;;;;;;;;;;6293520;28;19928;-60
2023/08/03 01:31:24;;;;;;;;;;;;;;;;;;6295233;28;19928;-60
2023/08/03 01:34:25;;;;;;;;;;;;;;;;;;6293475;28;20248;-60
2023/08/03 01:37:26;;;;;;;;;;;;;;;;;;6297233;28;20371;-59
2023/08/03 01:40:26;;;;;;;;;;;;;;;;;;6301446;28;19989;-59
2023/08/03 01:43:27;;;;;;;;;;;;;;;;;;6295864;28;20733;-60
2023/08/03 01:46:27;;;;;;;;;;;;;;;;;;6290958;28;19928;-59
2023/08/03 01:49:29;;;;;;;;;;;;;;;;;;6297479;28;19924;-60
2023/08/03 01:52:29;;;;;;;;;;;;;;;;;;6299143;28;19923;-59
2023/08/03 01:55:29;;;;;;;;;;;;;;;;;;6294219;28;20230;-60
2023/08/03 01:58:30;;;;;;;;;;;;;;;;;;6295057;28;19924;-60
2023/08/03 02:01:30;;;;;;;;;;;;;;;;;;6294037;28;20384;-60
2023/08/03 02:04:31;;;;;;;;;;;;;;;;;;6298379;28;19928;-60
2023/08/03 02:07:44;;;;;;;;;;;;;;;;;;6294273;28;19976;-59
2023/08/03 02:10:44;;;;;;;;;;;;;;;;;;6297635;28;19998;-60
2023/08/03 02:13:45;;;;;;;;;;;;;;;;;;6295004;28;19923;-60
2023/08/03 02:16:45;;;;;;;;;;;;;;;;;;6299575;28;19924;-60
2023/08/03 02:19:46;;;;;;;;;;;;;;;;;;6304717;28;19920;-60
2023/08/03 02:22:47;;;;;;;;;;;;;;;;;;6294739;28;19925;-60
2023/08/03 02:25:47;;;;;;;;;;;;;;;;;;6296101;28;19947;-60
2023/08/03 02:28:47;;;;;;;;;;;;;;;;;;6296190;28;19982;-60
2023/08/03 02:31:48;;;;;;;;;;;;;;;;;;6294784;28;19930;-60
2023/08/03 02:34:48;;;;;;;;;;;;;;;;;;6293980;28;19925;-59
2023/08/03 02:37:49;;;;;;;;;;;;;;;;;;6295688;28;19985;-59
2023/08/03 02:40:49;;;;;;;;;;;;;;;;;;6294897;28;19930;-60
2023/08/03 02:43:50;;;;;;;;;;;;;;;;;;6295863;28;20306;-60
2023/08/03 02:46:50;;;;;;;;;;;;;;;;;;6296545;28;19921;-60
2023/08/03 02:49:51;;;;;;;;;;;;;;;;;;6296940;28;19924;-60
2023/08/03 02:52:51;;;;;;;;;;;;;;;;;;6300346;28;19927;-60
2023/08/03 02:55:52;;;;;;;;;;;;;;;;;;6302407;28;19934;-59
2023/08/03 02:58:54;;;;;;;;;;;;;;;;;;6301406;28;19924;-60
2023/08/03 03:01:54;;;;;;;;;;;;;;;;;;6300352;28;19927;-59
2023/08/03 03:04:55;;;;;;;;;;;;;;;;;;6298574;28;19928;-60
2023/08/03 03:07:57;;;;;;;;;;;;;;;;;;6298754;28;19927;-59
2023/08/03 03:10:57;;;;;;;;;;;;;;;;;;6300657;28;20094;-57
2023/08/03 03:13:58;;;;;;;;;;;;;;;;;;6299582;28;19985;-60
2023/08/03 03:16:58;;;;;;;;;;;;;;;;;;6298129;28;19927;-59
2023/08/03 03:19:59;;;;;;;;;;;;;;;;;;6299304;28;19920;-59
2023/08/03 03:23:00;;;;;;;;;;;;;;;;;;6299374;28;19927;-59
2023/08/03 03:26:00;;;;;;;;;;;;;;;;;;6295245;28;19974;-59
2023/08/03 03:29:01;;;;;;;;;;;;;;;;;;6297716;28;19920;-59
2023/08/03 03:32:01;;;;;;;;;;;;;;;;;;6298949;28;19930;-60
2023/08/03 03:35:02;;;;;;;;;;;;;;;;;;6299428;28;19931;-59
2023/08/03 03:38:03;;;;;;;;;;;;;;;;;;6299286;28;20743;-59
2023/08/03 03:41:03;;;;;;;;;;;;;;;;;;6298799;28;19939;-60
2023/08/03 03:44:04;;;;;;;;;;;;;;;;;;6297549;28;19928;-59
2023/08/03 03:47:05;;;;;;;;;;;;;;;;;;6298916;28;19935;-60
2023/08/03 03:50:05;;;;;;;;;;;;;;;;;;6298296;28;22066;-59
2023/08/03 03:53:06;;;;;;;;;;;;;;;;;;6298170;28;19927;-61
2023/08/03 03:56:07;;;;;;;;;;;;;;;;;;6299981;28;20348;-60
2023/08/03 03:59:08;;;;;;;;;;;;;;;;;;6301116;28;19928;-60
2023/08/03 04:02:08;;;;;;;;;;;;;;;;;;6298623;28;19924;-59
2023/08/03 04:05:09;;;;;;;;;;;;;;;;;;6297733;28;19924;-60
2023/08/03 04:08:10;;;;;;;;;;;;;;;;;;6298361;28;20344;-60
2023/08/03 04:11:10;;;;;;;;;;;;;;;;;;6306570;28;19931;-59
2023/08/03 04:14:11;;;;;;;;;;;;;;;;;;6309933;28;19923;-59
2023/08/03 04:17:11;;;;;;;;;;;;;;;;;;6298077;28;20302;-60
2023/08/03 04:20:12;;;;;;;;;;;;;;;;;;6298005;28;19920;-59
2023/08/03 04:23:12;;;;;;;;;;;;;;;;;;6295503;28;19924;-60
2023/08/03 04:26:13;;;;;;;;;;;;;;;;;;6297246;28;19963;-59
2023/08/03 04:29:14;;;;;;;;;;;;;;;;;;6296464;28;20688;-59
2023/08/03 04:32:14;;;;;;;;;;;;;;;;;;6298127;28;20024;-59
2023/08/03 04:35:15;;;;;;;;;;;;;;;;;;6297528;28;19924;-59
2023/08/03 04:38:15;;;;;;;;;;;;;;;;;;6297896;28;19931;-59
2023/08/03 04:41:16;;;;;;;;;;;;;;;;;;6297092;28;19920;-60
2023/08/03 04:44:17;;;;;;;;;;;;;;;;;;6292248;28;19924;-59
2023/08/03 04:47:18;;;;;;;;;;;;;;;;;;6295616;28;20326;-59
2023/08/03 04:50:20;;;;;;;;;;;;;;;;;;6296757;28;19924;-59
2023/08/03 04:53:21;;;;;;;;;;;;;;;;;;6297429;28;19925;-59
2023/08/03 04:56:21;;;;;;;;;;;;;;;;;;6299641;28;19956;-59
2023/08/03 04:59:22;;;;;;;;;;;;;;;;;;6296272;28;19920;-59
2023/08/03 05:02:22;;;;;;;;;;;;;;;;;;6297279;28;19927;-61
2023/08/03 05:05:23;;;;;;;;;;;;;;;;;;6297213;28;19924;-59
2023/08/03 05:08:24;;;;;;;;;;;;;;;;;;6297606;28;19928;-60
2023/08/03 05:11:25;;;;;;;;;;;;;;;;;;6303055;28;19927;-59
2023/08/03 05:14:26;;;;;;;;;;;;;;;;;;6295370;28;19967;-60
2023/08/03 05:17:26;;;;;;;;;;;;;;;;;;6302106;28;19924;-59
2023/08/03 05:20:27;;;;;;;;;;;;;;;;;;6294990;28;19924;-60
2023/08/03 05:23:27;;;;;;;;;;;;;;;;;;6294276;28;19924;-59
2023/08/03 05:26:31;;;;;;;;;;;;;;;;;;6295522;28;19950;-59
2023/08/03 05:29:31;;;;;;;;;;;;;;;;;;6297702;28;19930;-60
2023/08/03 05:32:32;;;;;;;;;;;;;;;;;;6294454;28;20371;-61
2023/08/03 05:35:32;;;;;;;;;;;;;;;;;;6290899;28;19921;-53
2023/08/03 05:38:33;;;;;;;;;;;;;;;;;;6298459;28;19935;-60
2023/08/03 05:41:33;;;;;;;;;;;;;;;;;;6293776;28;20113;-57
2023/08/03 05:44:35;;;;;;;;;;;;;;;;;;6292596;28;19930;-57
2023/08/03 05:47:36;;;;;;;;;;;;;;;;;;6294627;28;19951;-58
2023/08/03 05:50:38;;;;;;;;;;;;;;;;;;6294291;28;20256;-58
2023/08/03 05:53:40;;;;;;;;;;;;;;;;;;6296573;28;20284;-59
2023/08/03 05:56:41;;;;;;;;;;;;;;;;;;6294342;28;19988;-58
2023/08/03 05:59:41;;;;;;;;;;;;;;;;;;6299342;28;19924;-57
2023/08/03 06:02:43;;;;;;;;;;;;;;;;;;6297273;28;20403;-56
2023/08/03 06:05:44;;;;;;;;;;;;;;;;;;6295033;28;19924;-57
2023/08/03 06:08:46;;;;;;;;;;;;;;;;;;6294037;28;20051;-57
2023/08/03 06:11:46;;;;;;;;;;;;;;;;;;6310600;28;19924;-57
2023/08/03 06:14:47;;;;;;;;;;;;;;;;;;6302795;28;19924;-54
2023/08/03 06:17:48;;;;;;;;;;;;;;;;;;6305463;28;20315;-60
2023/08/03 06:20:49;;;;;;;;;;;;;;;;;;6297207;28;19927;-58
2023/08/03 06:23:54;;;;;;;;;;;;;;;;;;6298115;28;19924;-58
2023/08/03 06:26:57;;;;;;;;;;;;;;;;;;6299330;28;19939;-60
2023/08/03 06:29:57;;;;;;;;;;;;;;;;;;6297657;28;19930;-57
2023/08/03 06:32:58;;;;;;;;;;;;;;;;;;6297529;28;19928;-58
2023/08/03 06:35:58;;;;;;;;;;;;;;;;;;6297723;28;19931;-59
2023/08/03 06:38:59;;;;;;;;;;;;;;;;;;6298632;28;20572;-58
2023/08/03 06:42:02;;;;;;;;;;;;;;;;;;6298875;28;19934;-60
2023/08/03 06:45:03;;;;;;;;;;;;;;;;;;6304339;28;19924;-58
2023/08/03 06:48:04;;;;;;;;;;;;;;;;;;6299300;28;20352;-59
2023/08/03 06:51:05;;;;;;;;;;;;;;;;;;6298966;28;20343;-58
2023/08/03 06:54:05;;;;;;;;;;;;;;;;;;6298994;28;20715;-56
2023/08/03 06:57:06;;;;;;;;;;;;;;;;;;6297921;28;19924;-58
2023/08/03 07:00:07;;;;;;;;;;;;;;;;;;6299349;28;20590;-58
2023/08/03 07:03:08;;;;;;;;;;;;;;;;;;6298408;28;19928;-58
2023/08/03 07:06:08;;;;;;;;;;;;;;;;;;6295783;28;19924;-58
2023/08/03 07:09:09;;;;;;;;;;;;;;;;;;6298946;28;19938;-58
2023/08/03 07:12:09;;;;;;;;;;;;;;;;;;6299857;28;19932;-55
2023/08/03 07:15:10;;;;;;;;;;;;;;;;;;6297448;28;19956;-60
2023/08/03 07:18:11;;;;;;;;;;;;;;;;;;6299105;28;19923;-57
2023/08/03 07:21:12;;;;;;;;;;;;;;;;;;6297129;28;20253;-58
2023/08/03 07:24:12;;;;;;;;;;;;;;;;;;6295150;28;19931;-58
2023/08/03 07:27:14;;;;;;;;;;;;;;;;;;6295701;28;20004;-59
2023/08/03 07:30:15;;;;;;;;;;;;;;;;;;6298568;28;19970;-58
2023/08/03 07:33:15;;;;;;;;;;;;;;;;;;6298927;28;20298;-58
2023/08/03 07:36:17;;;;;;;;;;;;;;;;;;6295620;28;20354;-59
2023/08/03 07:39:18;;;;;;;;;;;;;;;;;;6296042;28;19950;-57
2023/08/03 07:42:18;;;;;;;;;;;;;;;;;;6299159;28;19927;-57
2023/08/03 07:45:19;;;;;;;;;;;;;;;;;;6296624;28;19977;-58
2023/08/03 07:48:20;;;;;;;;;;;;;;;;;;6303669;28;19923;-57
2023/08/03 07:51:20;;;;;;;;;;;;;;;;;;6300018;28;19924;-59
2023/08/03 07:54:21;;;;;;;;;;;;;;;;;;6296129;28;20287;-57
2023/08/03 07:57:21;;;;;;;;;;;;;;;;;;6297479;28;19920;-57
2023/08/03 08:00:22;;;;;;;;;;;;;;;;;;6295751;28;19927;-58
2023/08/03 08:03:22;;;;;;;;;;;;;;;;;;6298398;28;19920;-58
2023/08/03 08:06:23;;;;;;;;;;;;;;;;;;6297405;28;20011;-58
2023/08/03 08:09:24;;;;;;;;;;;;;;;;;;6297701;28;20351;-58
2023/08/03 08:12:24;;;;;;;;;;;;;;;;;;6295709;28;19924;-56
2023/08/03 08:15:25;;;;;;;;;;;;;;;;;;6298425;28;20329;-57
2023/08/03 08:18:32;;;;;;;;;;;;;;;;;;6278545;28;20256;-59
2023/08/03 08:21:33;;;;;;;;;;;;;;;;;;6296814;28;19950;-56
2023/08/03 08:24:33;;;;;;;;;;;;;;;;;;6296920;28;20378;-55
2023/08/03 08:27:34;;;;;;;;;;;;;;;;;;6298410;28;20397;-58
2023/08/03 08:30:35;;;;;;;;;;;;;;;;;;6297564;28;19924;-57
2023/08/03 08:33:36;;;;;;;;;;;;;;;;;;6296056;28;19920;-60
2023/08/03 08:36:36;;;;;;;;;;;;;;;;;;6296910;28;19974;-59
2023/08/03 08:39:37;;;;;;;;;;;;;;;;;;6301339;28;19924;-57
2023/08/03 08:42:38;;;;;;;;;;;;;;;;;;6299182;28;20286;-58
2023/08/03 08:45:38;;;;;;;;;;;;;;;;;;6299086;28;20463;-60
2023/08/03 08:48:39;;;;;;;;;;;;;;;;;;6297856;28;20271;-59
2023/08/03 08:51:41;;;;;;;;;;;;;;;;;;6301439;28;19977;-61
2023/08/03 08:54:42;;;;;;;;;;;;;;;;;;6301455;28;20034;-59
2023/08/03 08:57:42;;;;;;;;;;;;;;;;;;6301873;28;19993;-58
2023/08/03 09:00:44;;;;;;;;;;;;;;;;;;6301319;28;19920;-58
2023/08/03 09:03:49;;;;;;;;;;;;;;;;;;6300531;28;20009;-59
2023/08/03 09:06:49;;;;;;;;;;;;;;;;;;6298241;28;20794;-59
2023/08/03 09:09:59;;;;;;;;;;;;;;;;;;6301075;28;19928;-59
2023/08/03 09:12:59;;;;;;;;;;;;;;;;;;6304019;28;19924;-56
2023/08/03 09:16:00;;;;;;;;;;;;;;;;;;6301292;28;19974;-60
2023/08/03 09:19:00;;;;;;;;;;;;;;;;;;6300211;28;19954;-58
2023/08/03 09:22:01;;;;;;;;;;;;;;;;;;6298497;28;20019;-59
2023/08/03 09:25:09;;;;;;;;;;;;;;;;;;6299277;28;19939;-59
2023/08/03 09:28:09;;;;;;;;;;;;;;;;;;6298168;28;19980;-57
2023/08/03 09:31:10;;;;;;;;;;;;;;;;;;6301035;28;20040;-60
2023/08/03 09:34:11;;;;;;;;;;;;;;;;;;6300606;28;19920;-60
2023/08/03 09:37:12;;;;;;;;;;;;;;;;;;6297594;28;19927;-58
2023/08/03 09:40:13;;;;;;;;;;;;;;;;;;6299309;28;20025;-60
2023/08/03 09:43:14;;;;;;;;;;;;;;;;;;6298977;28;19928;-59
2023/08/03 09:46:14;;;;;;;;;;;;;;;;;;6300221;28;19994;-60
2023/08/03 09:49:15;;;;;;;;;;;;;;;;;;6299621;28;19920;-61
2023/08/03 09:52:20;;;;;;;;;;;;;;;;;;6300941;28;19927;-58
2023/08/03 09:55:29;;;;;;;;;;;;;;;;;;6302009;28;20345;-57
2023/08/03 09:58:51;;;;;;;;;;;;;;;;;;6303494;28;19928;-58
2023/08/03 10:01:56;;;;;;;;;;;;;;;;;;6305888;28;19924;-58
2023/08/03 10:05:03;;;;;;;;;;;;;;;;;;6307310;28;20378;-59
2023/08/03 10:08:25;;;;;;;;;;;;;;;;;;6303469;28;19920;-60
2023/08/03 10:11:28;;;;;;;;;;;;;;;;;;6305657;28;19920;-59
2023/08/03 10:14:31;;;;;;;;;;;;;;;;;;6306598;28;19965;-58
2023/08/03 10:17:32;;;;;;;;;;;;;;;;;;6309177;28;19926;-59
2023/08/03 10:20:34;;;;;;;;;;;;;;;;;;6303935;28;19924;-56
2023/08/03 10:23:38;;;;;;;;;;;;;;;;;;6304039;28;19969;-60
2023/08/03 10:26:39;;;;;;;;;;;;;;;;;;6305060;28;19924;-58
2023/08/03 10:29:56;;;;;;;;;;;;;;;;;;6302304;28;19924;-59
2023/08/03 10:32:56;;;;;;;;;;;;;;;;;;6303903;28;19920;-60
2023/08/03 10:35:57;;;;;;;;;;;;;;;;;;6306066;28;20303;-59
2023/08/03 10:38:57;;;;;;;;;;;;;;;;;;6306824;28;20026;-57
2023/08/03 10:42:16;;;;;;;;;;;;;;;;;;6303355;28;20027;-60
2023/08/03 10:45:26;;;;;;;;;;;;;;;;;;6305589;28;19924;-58
2023/08/03 10:48:28;;;;;;;;;;;;;;;;;;6305118;28;20393;-58
2023/08/03 10:51:28;;;;;;;;;;;;;;;;;;6303914;28;20023;-56
2023/08/03 10:54:30;;;;;;;;;;;;;;;;;;6306170;28;19935;-59
2023/08/03 10:57:32;;;;;;;;;;;;;;;;;;6304341;28;19924;-58
2023/08/03 11:00:32;;;;;;;;;;;;;;;;;;6304310;28;20344;-58
2023/08/03 11:03:37;;;;;;;;;;;;;;;;;;6304866;28;19931;-58
2023/08/03 11:06:37;;;;;;;;;;;;;;;;;;6308900;28;20384;-58
2023/08/03 11:09:38;;;;;;;;;;;;;;;;;;6309744;28;19928;-57
2023/08/03 11:12:40;;;;;;;;;;;;;;;;;;6305075;28;20369;-54
2023/08/03 11:15:40;;;;;;;;;;;;;;;;;;6300467;28;20387;-58
2023/08/03 11:18:45;;;;;;;;;;;;;;;;;;6305549;28;19973;-57
2023/08/03 11:21:45;;;;;;;;;;;;;;;;;;6300817;28;19948;-61
2023/08/03 11:24:46;;;;;;;;;;;;;;;;;;6306452;28;20366;-62
2023/08/03 11:27:46;;;;;;;;;;;;;;;;;;6304787;28;19924;-59
2023/08/03 11:30:47;;;;;;;;;;;;;;;;;;6304533;28;20388;-60
2023/08/03 11:33:51;;;;;;;;;;;;;;;;;;6302542;28;19928;-61
2023/08/03 11:36:52;;;;;;;;;;;;;;;;;;6301182;28;19928;-60
2023/08/03 11:39:52;;;;;;;;;;;;;;;;;;6305662;28;20370;-61
2023/08/03 11:42:53;;;;;;;;;;;;;;;;;;6305582;28;19958;-61
2023/08/03 11:45:55;;;;;;;;;;;;;;;;;;6300095;28;20381;-60
2023/08/03 11:49:00;;;;;;;;;;;;;;;;;;6304319;28;20375;-61
2023/08/03 11:52:01;;;;;;;;;;;;;;;;;;6304434;28;19923;-60
2023/08/03 11:55:01;;;;;;;;;;;;;;;;;;6302439;28;19943;-61
2023/08/03 11:58:07;;;;;;;;;;;;;;;;;;6301167;28;21224;-60
2023/08/03 12:01:08;;;;;;;;;;;;;;;;;;6301788;28;20009;-61
2023/08/03 12:04:09;;;;;;;;;;;;;;;;;;6301800;28;19924;-59
2023/08/03 12:07:12;;;;;;;;;;;;;;;;;;6301577;28;19924;-60
2023/08/03 12:10:13;;;;;;;;;;;;;;;;;;6304512;28;20317;-60
2023/08/03 12:13:13;;;;;;;;;;;;;;;;;;6302380;28;20588;-60
2023/08/03 12:16:14;;;;;;;;;;;;;;;;;;6300719;28;19928;-57
2023/08/03 12:19:14;;;;;;;;;;;;;;;;;;6300351;28;20306;-60
2023/08/03 12:22:15;;;;;;;;;;;;;;;;;;6300579;28;19924;-61
2023/08/03 12:25:15;;;;;;;;;;;;;;;;;;6297427;28;19931;-60
2023/08/03 12:28:16;;;;;;;;;;;;;;;;;;6299445;28;19931;-60
2023/08/03 12:31:17;;;;;;;;;;;;;;;;;;6303398;28;19920;-59
2023/08/03 12:34:17;;;;;;;;;;;;;;;;;;6300882;28;19935;-60
2023/08/03 12:37:18;;;;;;;;;;;;;;;;;;6301839;28;20326;-60
2023/08/03 12:40:18;;;;;;;;;;;;;;;;;;6300291;28;19928;-60
2023/08/03 12:43:18;;;;;;;;;;;;;;;;;;6295770;28;20629;-60
2023/08/03 12:46:19;;;;;;;;;;;;;;;;;;6294619;28;19931;-61
2023/08/03 12:49:21;;;;;;;;;;;;;;;;;;6299459;28;19930;-61
2023/08/03 12:52:22;;;;;;;;;;;;;;;;;;6305088;28;19992;-61
2023/08/03 12:55:23;;;;;;;;;;;;;;;;;;6300129;28;19927;-61
2023/08/03 12:58:23;;;;;;;;;;;;;;;;;;6295907;28;19927;-62
2023/08/03 13:01:24;;;;;;;;;;;;;;;;;;6302899;28;20367;-59
2023/08/03 13:04:24;;;;;;;;;;;;;;;;;;6301256;28;19924;-59
2023/08/03 13:07:25;;;;;;;;;;;;;;;;;;6300230;28;19928;-62
2023/08/03 13:10:25;;;;;;;;;;;;;;;;;;6297816;28;19927;-61
2023/08/03 13:13:26;;;;;;;;;;;;;;;;;;6298767;28;19924;-61
2023/08/03 13:16:26;;;;;;;;;;;;;;;;;;6300336;28;19931;-61
2023/08/03 13:19:27;;;;;;;;;;;;;;;;;;6300182;28;20402;-61
2023/08/03 13:22:27;;;;;;;;;;;;;;;;;;6301242;28;19972;-62
2023/08/03 13:25:28;;;;;;;;;;;;;;;;;;6299443;28;19924;-61
2023/08/03 13:28:29;;;;;;;;;;;;;;;;;;6301759;28;20644;-61
2023/08/03 13:31:29;;;;;;;;;;;;;;;;;;6300714;28;20283;-61
2023/08/03 13:34:30;;;;;;;;;;;;;;;;;;6297641;28;19930;-60
2023/08/03 13:37:31;;;;;;;;;;;;;;;;;;6294273;28;19924;-61
2023/08/03 13:40:31;;;;;;;;;;;;;;;;;;6300577;28;19935;-62
2023/08/03 13:43:34;;;;;;;;;;;;;;;;;;6299010;28;19924;-62
2023/08/03 13:46:34;;;;;;;;;;;;;;;;;;6298421;28;19920;-61
2023/08/03 13:49:36;;;;;;;;;;;;;;;;;;6296778;28;20004;-60
2023/08/03 13:52:36;;;;;;;;;;;;;;;;;;6295749;28;19924;-61
2023/08/03 13:55:37;;;;;;;;;;;;;;;;;;6302485;28;19954;-60
2023/08/03 13:58:37;;;;;;;;;;;;;;;;;;6297699;28;20374;-61
2023/08/03 14:01:38;;;;;;;;;;;;;;;;;;6297132;28;19928;-59
2023/08/03 14:04:41;;;;;;;;;;;;;;;;;;6294738;28;19929;-61
2023/08/03 14:07:42;;;;;;;;;;;;;;;;;;6295512;28;19925;-61
2023/08/03 14:10:42;;;;;;;;;;;;;;;;;;6295255;28;19924;-61
2023/08/03 14:13:43;;;;;;;;;;;;;;;;;;6297561;28;19947;-61
2023/08/03 14:16:48;;;;;;;;;;;;;;;;;;6297510;28;20299;-60
2023/08/03 14:19:48;;;;;;;;;;;;;;;;;;6300393;28;19924;-60
2023/08/03 14:22:49;;;;;;;;;;;;;;;;;;6296796;28;20642;-61
2023/08/03 14:25:49;;;;;;;;;;;;;;;;;;6295244;28;20361;-60
2023/08/03 14:28:50;;;;;;;;;;;;;;;;;;6296151;28;19935;-61
2023/08/03 14:31:50;;;;;;;;;;;;;;;;;;6295119;28;20340;-60
2023/08/03 14:34:51;;;;;;;;;;;;;;;;;;6300165;28;19928;-60
2023/08/03 14:37:51;;;;;;;;;;;;;;;;;;6303465;28;19928;-62
2023/08/03 14:40:52;;;;;;;;;;;;;;;;;;6305668;28;20271;-60
2023/08/03 14:43:52;;;;;;;;;;;;;;;;;;6306528;28;20617;-58
2023/08/03 14:46:53;;;;;;;;;;;;;;;;;;6299049;28;19958;-61
2023/08/03 14:49:54;;;;;;;;;;;;;;;;;;6301432;28;20015;-60
2023/08/03 14:52:55;;;;;;;;;;;;;;;;;;6298695;28;19962;-61
2023/08/03 14:56:02;;;;;;;;;;;;;;;;;;6299502;28;20378;-61
2023/08/03 14:59:03;;;;;;;;;;;;;;;;;;6298962;28;20268;-60
2023/08/03 15:02:04;;;;;;;;;;;;;;;;;;6297236;28;19923;-60
2023/08/03 15:05:04;;;;;;;;;;;;;;;;;;6291992;28;19950;-60
2023/08/03 15:08:05;;;;;;;;;;;;;;;;;;6296274;28;19926;-60
2023/08/03 15:11:05;;;;;;;;;;;;;;;;;;6294873;28;19919;-60
2023/08/03 15:14:06;;;;;;;;;;;;;;;;;;6295625;28;19966;-60
2023/08/03 15:17:07;;;;;;;;;;;;;;;;;;6300045;28;19920;-61
2023/08/03 15:20:07;;;;;;;;;;;;;;;;;;6300563;28;20424;-60
2023/08/03 15:23:08;;;;;;;;;;;;;;;;;;6295556;28;20379;-61
2023/08/03 15:26:08;;;;;;;;;;;;;;;;;;6297661;28;20370;-60
2023/08/03 15:29:09;;;;;;;;;;;;;;;;;;6298321;28;19971;-60
2023/08/03 15:32:09;;;;;;;;;;;;;;;;;;6299999;28;20375;-61
2023/08/03 15:35:10;;;;;;;;;;;;;;;;;;6299148;28;19924;-61
2023/08/03 15:38:12;;;;;;;;;;;;;;;;;;6295585;28;19928;-60
2023/08/03 15:41:12;;;;;;;;;;;;;;;;;;6297635;28;19963;-61
2023/08/03 15:44:13;;;;;;;;;;;;;;;;;;6297532;28;19925;-61
2023/08/03 15:47:13;;;;;;;;;;;;;;;;;;6298544;28;19931;-61
2023/08/03 15:50:14;;;;;;;;;;;;;;;;;;6295739;28;19920;-60
2023/08/03 15:53:14;;;;;;;;;;;;;;;;;;6295641;28;20370;-61
2023/08/03 15:56:15;;;;;;;;;;;;;;;;;;6296370;28;19964;-60
2023/08/03 15:59:16;;;;;;;;;;;;;;;;;;6298851;28;20426;-61
2023/08/03 16:02:16;;;;;;;;;;;;;;;;;;6297097;28;20414;-60
2023/08/03 16:05:16;;;;;;;;;;;;;;;;;;6292177;28;19935;-60
2023/08/03 16:08:17;;;;;;;;;;;;;;;;;;6296697;28;19964;-60
2023/08/03 16:11:18;;;;;;;;;;;;;;;;;;6298545;28;19928;-60
2023/08/03 16:14:18;;;;;;;;;;;;;;;;;;6298334;28;19928;-59
2023/08/03 16:17:20;;;;;;;;;;;;;;;;;;6298590;28;19954;-60
2023/08/03 16:20:21;;;;;;;;;;;;;;;;;;6298459;28;19921;-60
2023/08/03 16:23:22;;;;;;;;;;;;;;;;;;6297680;28;21138;-60
2023/08/03 16:26:23;;;;;;;;;;;;;;;;;;6296259;28;20358;-59
2023/08/03 16:29:23;;;;;;;;;;;;;;;;;;6297420;28;19928;-60
2023/08/03 16:32:24;;;;;;;;;;;;;;;;;;6297015;28;19931;-61
2023/08/03 16:35:24;;;;;;;;;;;;;;;;;;6298507;28;19920;-61
2023/08/03 16:38:25;;;;;;;;;;;;;;;;;;6297647;28;19967;-61
2023/08/03 16:41:25;;;;;;;;;;;;;;;;;;6298317;28;20024;-60
2023/08/03 16:44:26;;;;;;;;;;;;;;;;;;6293189;28;20002;-60
2023/08/03 16:47:27;;;;;;;;;;;;;;;;;;6308672;28;20050;-60
2023/08/03 16:50:28;;;;;;;;;;;;;;;;;;6307820;28;20569;-60
2023/08/03 16:53:29;;;;;;;;;;;;;;;;;;6314022;28;19928;-61
2023/08/03 16:56:29;;;;;;;;;;;;;;;;;;6311864;28;20047;-61
2023/08/03 16:59:30;;;;;;;;;;;;;;;;;;6320576;28;19938;-62
2023/08/03 17:02:31;;;;;;;;;;;;;;;;;;6312185;28;20019;-58
2023/08/03 17:05:31;;;;;;;;;;;;;;;;;;6312556;28;19928;-62
2023/08/03 17:08:32;;;;;;;;;;;;;;;;;;6310364;28;19928;-59
2023/08/03 17:11:32;;;;;;;;;;;;;;;;;;6316996;28;19928;-59
2023/08/03 17:14:36;;;;;;;;;;;;;;;;;;6316054;28;19923;-59
2023/08/03 17:17:37;;;;;;;;;;;;;;;;;;6315148;28;19931;-60
2023/08/03 17:20:38;;;;;;;;;;;;;;;;;;6311422;28;20401;-60
2023/08/03 17:23:38;;;;;;;;;;;;;;;;;;6294387;28;20260;-60
2023/08/03 17:26:39;;;;;;;;;;;;;;;;;;6294627;28;20461;-65
2023/08/03 17:29:39;;;;;;;;;;;;;;;;;;6298300;28;20290;-68
2023/08/03 17:32:40;;;;;;;;;;;;;;;;;;6296422;28;20242;-60
2023/08/03 17:35:41;;;;;;;;;;;;;;;;;;6305733;28;19927;-61
2023/08/03 17:38:41;;;;;;;;;;;;;;;;;;6308475;28;20390;-61
2023/08/03 17:41:43;;;;;;;;;;;;;;;;;;6299751;28;20358;-62
2023/08/03 17:44:45;;;;;;;;;;;;;;;;;;6297771;28;19972;-62
2023/08/03 17:47:45;;;;;;;;;;;;;;;;;;6300807;28;21474;-62
2023/08/03 17:50:46;;;;;;;;;;;;;;;;;;6299655;28;19934;-61
2023/08/03 17:53:46;;;;;;;;;;;;;;;;;;6300582;28;19955;-62
2023/08/03 17:56:48;;;;;;;;;;;;;;;;;;6296840;28;19932;-61
2023/08/03 17:59:49;;;;;;;;;;;;;;;;;;6294400;28;19939;-61
2023/08/03 18:02:50;;;;;;;;;;;;;;;;;;6302519;28;19934;-61
2023/08/03 18:05:50;;;;;;;;;;;;;;;;;;6297169;28;19924;-62
2023/08/03 18:08:52;;;;;;;;;;;;;;;;;;6297860;28;19957;-61
2023/08/03 18:11:52;;;;;;;;;;;;;;;;;;6301076;28;19928;-61
2023/08/03 18:14:53;;;;;;;;;;;;;;;;;;6300947;28;19932;-60
2023/08/03 18:17:53;;;;;;;;;;;;;;;;;;6290800;28;19924;-60
2023/08/03 18:20:53;;;;;;;;;;;;;;;;;;6300848;28;19928;-60
2023/08/03 18:23:55;;;;;;;;;;;;;;;;;;6302691;28;20306;-61
2023/08/03 18:26:56;;;;;;;;;;;;;;;;;;6297736;28;19923;-60
2023/08/03 18:29:56;;;;;;;;;;;;;;;;;;6299141;28;19935;-58
2023/08/03 18:32:57;;;;;;;;;;;;;;;;;;6297493;28;19946;-59
2023/08/03 18:35:58;;;;;;;;;;;;;;;;;;6303763;28;19927;-54
2023/08/03 18:38:59;;;;;;;;;;;;;;;;;;6295981;28;19930;-56
2023/08/03 18:42:00;;;;;;;;;;;;;;;;;;6300011;28;19932;-58
2023/08/03 18:45:00;;;;;;;;;;;;;;;;;;6293682;28;19935;-58
2023/08/03 18:48:01;;;;;;;;;;;;;;;;;;6301408;28;20661;-60
2023/08/03 18:51:02;;;;;;;;;;;;;;;;;;6302691;28;20283;-60
2023/08/03 18:54:03;;;;;;;;;;;;;;;;;;6304280;28;20010;-59
2023/08/03 18:57:04;;;;;;;;;;;;;;;;;;6302116;28;19950;-60
2023/08/03 19:00:05;;;;;;;;;;;;;;;;;;6303312;28;19928;-61
2023/08/03 19:03:06;;;;;;;;;;;;;;;;;;6306557;28;20680;-59
2023/08/03 19:06:07;;;;;;;;;;;;;;;;;;6304805;28;19928;-60
2023/08/03 19:09:08;;;;;;;;;;;;;;;;;;6305923;28;19931;-58
2023/08/03 19:12:08;;;;;;;;;;;;;;;;;;6304647;28;20374;-60
2023/08/03 19:15:09;;;;;;;;;;;;;;;;;;6305778;28;20309;-59
2023/08/03 19:18:09;;;;;;;;;;;;;;;;;;6305930;28;20931;-60
2023/08/03 19:21:10;;;;;;;;;;;;;;;;;;6309277;28;19931;-60
2023/08/03 19:24:11;;;;;;;;;;;;;;;;;;6309614;28;20735;-60
2023/08/03 19:27:11;;;;;;;;;;;;;;;;;;6308994;28;19972;-59
2023/08/03 19:30:12;;;;;;;;;;;;;;;;;;6305870;28;19930;-60
2023/08/03 19:33:12;;;;;;;;;;;;;;;;;;6305891;28;19923;-59
2023/08/03 19:36:17;;;;;;;;;;;;;;;;;;6301197;28;20745;-60
2023/08/03 19:39:18;;;;;;;;;;;;;;;;;;6309764;28;20125;-61
2023/08/03 19:42:18;;;;;;;;;;;;;;;;;;6307125;28;19927;-60
2023/08/03 19:45:23;;;;;;;;;;;;;;;;;;6305099;28;20370;-61
2023/08/03 19:48:25;;;;;;;;;;;;;;;;;;6308865;28;19959;-60
2023/08/03 19:51:25;;;;;;;;;;;;;;;;;;6307352;28;20022;-61
2023/08/03 19:54:26;;;;;;;;;;;;;;;;;;6305989;28;19950;-60
2023/08/03 19:57:27;;;;;;;;;;;;;;;;;;6305009;28;19928;-61
2023/08/03 20:00:27;;;;;;;;;;;;;;;;;;6306518;28;19924;-61
2023/08/03 20:03:28;;;;;;;;;;;;;;;;;;6288657;28;19928;-61
2023/08/03 20:06:28;;;;;;;;;;;;;;;;;;6303599;28;19927;-61
2023/08/03 20:09:29;;;;;;;;;;;;;;;;;;6306655;28;20665;-61
2023/08/03 20:12:29;;;;;;;;;;;;;;;;;;6305656;28;19927;-61
2023/08/03 20:15:31;;;;;;;;;;;;;;;;;;6304286;28;19935;-61
2023/08/03 20:18:32;;;;;;;;;;;;;;;;;;6303777;28;19927;-62
2023/08/03 20:21:35;;;;;;;;;;;;;;;;;;6306609;28;19927;-61
2023/08/03 20:24:36;;;;;;;;;;;;;;;;;;6301729;28;19923;-56
2023/08/03 20:27:36;;;;;;;;;;;;;;;;;;6304900;28;19928;-55
2023/08/03 20:30:37;;;;;;;;;;;;;;;;;;6306196;28;20330;-59
2023/08/03 20:33:38;;;;;;;;;;;;;;;;;;6305264;28;19928;-61
2023/08/03 20:36:38;;;;;;;;;;;;;;;;;;6302765;28;19970;-57